createdAt,value
2022-10-07T00:04:10.725Z,15
2022-10-07T00:09:22.616Z,15
2022-10-07T00:14:34.345Z,14
2022-10-07T00:19:46.254Z,14
2022-10-07T00:24:58.304Z,14
2022-10-07T00:30:10.362Z,14
2022-10-07T00:35:22.072Z,14
2022-10-07T00:40:34.306Z,14
2022-10-07T00:45:46.352Z,14
2022-10-07T00:50:58.305Z,14
2022-10-07T00:56:10.246Z,14
2022-10-07T01:01:22.416Z,14
2022-10-07T01:06:34.263Z,14
2022-10-07T01:11:46.217Z,14
2022-10-07T01:16:58.180Z,14
2022-10-07T01:22:10.314Z,14
2022-10-07T01:27:22.398Z,14
2022-10-07T01:32:34.065Z,14
2022-10-07T01:37:47.705Z,14
2022-10-07T01:42:59.368Z,14
2022-10-07T01:48:11.143Z,14
2022-10-07T01:53:22.945Z,13
2022-10-07T01:58:34.944Z,13
2022-10-07T02:03:47.520Z,13
2022-10-07T02:08:59.434Z,13
2022-10-07T02:14:11.599Z,13
2022-10-07T02:19:23.357Z,13
2022-10-07T02:24:35.074Z,13
2022-10-07T02:29:46.905Z,13
2022-10-07T02:34:58.918Z,13
2022-10-07T02:40:13.095Z,13
2022-10-07T02:45:27.450Z,13
2022-10-07T02:50:38.356Z,13
2022-10-07T02:55:50.245Z,13
2022-10-07T03:01:02.279Z,13
2022-10-07T03:06:14.028Z,13
2022-10-07T03:11:25.765Z,13
2022-10-07T03:16:37.852Z,13
2022-10-07T03:21:49.495Z,13
2022-10-07T03:27:01.475Z,13
2022-10-07T03:32:13.579Z,13
2022-10-07T03:37:25.545Z,13
2022-10-07T03:42:37.226Z,13
2022-10-07T03:47:50.152Z,13
2022-10-07T03:53:01.599Z,13
2022-10-07T03:58:13.479Z,13
2022-10-07T04:03:25.618Z,13
2022-10-07T04:08:37.729Z,12
2022-10-07T04:13:49.677Z,12
2022-10-07T04:19:01.851Z,12
2022-10-07T04:24:14.271Z,12
2022-10-07T04:29:26.128Z,12
2022-10-07T04:34:38.174Z,12
2022-10-07T04:40:01.810Z,12
2022-10-07T04:45:13.348Z,12
2022-10-07T04:50:25.185Z,12
2022-10-07T04:55:37.039Z,12
2022-10-07T05:00:49.259Z,12
2022-10-07T05:06:06.502Z,12
2022-10-07T05:11:20.708Z,12
2022-10-07T05:16:32.977Z,12
2022-10-07T05:21:45.250Z,12
2022-10-07T05:26:57.038Z,12
2022-10-07T05:32:09.168Z,12
2022-10-07T05:37:21.151Z,12
2022-10-07T05:42:33.168Z,12
2022-10-07T05:47:46.232Z,12
2022-10-07T05:52:59.185Z,12
2022-10-07T05:58:11.056Z,12
2022-10-07T06:03:23.253Z,12
2022-10-07T06:08:35.381Z,12
2022-10-07T06:13:47.189Z,12
2022-10-07T06:18:59.317Z,12
2022-10-07T06:24:11.236Z,12
2022-10-07T06:29:23.079Z,12
2022-10-07T06:34:35.098Z,12
2022-10-07T06:39:47.153Z,12
2022-10-07T06:44:59.538Z,13
2022-10-07T06:50:11.682Z,13
2022-10-07T06:55:23.552Z,13
2022-10-07T07:00:35.521Z,13
2022-10-07T07:05:54.411Z,13
2022-10-07T07:11:05.389Z,13
2022-10-07T07:16:17.499Z,13
2022-10-07T07:21:29.608Z,13
2022-10-07T07:26:41.704Z,14
2022-10-07T07:31:53.908Z,14
2022-10-07T07:37:06.187Z,14
2022-10-07T07:42:18.531Z,14
2022-10-07T07:47:30.841Z,14
2022-10-07T07:52:43.022Z,14
2022-10-07T07:57:55.340Z,14
2022-10-07T08:03:07.570Z,15
2022-10-07T08:08:19.841Z,15
2022-10-07T08:13:34.399Z,15
2022-10-07T08:18:46.891Z,15
2022-10-07T08:23:59.392Z,15
2022-10-07T08:29:11.850Z,16
2022-10-07T08:34:24.001Z,16
2022-10-07T08:39:36.480Z,16
2022-10-07T08:44:49.216Z,16
2022-10-07T08:50:01.450Z,16
2022-10-07T08:55:13.872Z,17
2022-10-07T09:00:26.255Z,17
2022-10-07T09:05:38.873Z,17
2022-10-07T09:10:51.401Z,17
2022-10-07T09:16:04.132Z,18
2022-10-07T09:21:16.581Z,18
2022-10-07T09:26:29.092Z,18
2022-10-07T09:31:41.665Z,18
2022-10-07T09:36:54.051Z,19
2022-10-07T09:42:06.452Z,19
2022-10-07T09:47:19.045Z,19
2022-10-07T09:52:31.553Z,19
2022-10-07T09:57:45.108Z,20
2022-10-07T10:03:06.532Z,20
2022-10-07T10:08:17.341Z,20
2022-10-07T10:13:30.035Z,20
2022-10-07T10:18:42.564Z,20
2022-10-07T10:23:55.141Z,21
2022-10-07T10:29:07.641Z,21
2022-10-07T10:34:20.187Z,21
2022-10-07T10:39:32.643Z,21
2022-10-07T10:44:45.160Z,21
2022-10-07T10:49:57.774Z,22
2022-10-07T10:55:10.399Z,22
2022-10-07T11:00:22.801Z,22
2022-10-07T11:05:35.446Z,22
2022-10-07T11:10:48.662Z,24
2022-10-07T11:16:04.077Z,27
2022-10-07T11:21:19.234Z,30
2022-10-07T11:26:35.570Z,31
2022-10-07T11:31:48.821Z,32
2022-10-07T11:42:13.404Z,32
2022-10-07T11:47:26.597Z,33
2022-10-07T11:52:39.667Z,33
2022-10-07T12:08:14.073Z,33
2022-10-07T12:18:38.119Z,34
2022-10-07T12:23:50.902Z,34
2022-10-07T12:39:25.570Z,34
2022-10-07T12:44:38.237Z,34
2022-10-07T12:49:51.337Z,34
2022-10-07T12:55:04.631Z,35
2022-10-07T13:05:28.087Z,34
2022-10-07T13:15:51.359Z,34
2022-10-07T13:21:03.847Z,34
2022-10-07T13:41:47.685Z,32
2022-10-07T13:52:09.442Z,31
2022-10-07T13:57:22.168Z,31
2022-10-07T14:43:57.504Z,27
2022-10-07T14:49:10.110Z,26
2022-10-07T14:54:22.467Z,26
2022-10-07T14:59:34.734Z,26
2022-10-07T15:04:47.722Z,26
2022-10-07T15:10:00.162Z,26
2022-10-07T15:20:22.897Z,26
2022-10-07T15:25:35.419Z,26
2022-10-07T15:30:48.243Z,26
2022-10-07T15:36:00.714Z,26
2022-10-07T15:46:23.323Z,26
2022-10-07T15:51:35.795Z,26
2022-10-07T15:56:48.164Z,25
2022-10-07T16:07:10.688Z,25
2022-10-07T16:12:22.939Z,25
2022-10-07T16:53:45.130Z,22
2022-10-07T17:04:07.652Z,22
2022-10-07T17:09:20.169Z,22
2022-10-07T17:14:32.877Z,22
2022-10-07T17:19:44.874Z,21
2022-10-07T17:24:57.013Z,21
2022-10-07T17:30:09.146Z,21
2022-10-07T17:35:21.404Z,21
2022-10-07T17:40:33.647Z,21
2022-10-07T17:45:45.605Z,21
2022-10-07T17:50:57.716Z,21
2022-10-07T17:56:09.928Z,20
2022-10-07T18:01:22.231Z,20
2022-10-07T18:06:34.515Z,20
2022-10-07T18:11:46.688Z,20
2022-10-07T18:16:58.824Z,20
2022-10-07T18:22:10.896Z,20
2022-10-07T18:27:23.137Z,20
2022-10-07T18:32:35.073Z,20
2022-10-07T18:37:48.451Z,20
2022-10-07T18:43:00.716Z,20
2022-10-07T18:48:12.692Z,19
2022-10-07T18:53:24.845Z,19
2022-10-07T18:58:36.986Z,19
2022-10-07T19:03:49.083Z,19
2022-10-07T19:09:01.032Z,19
2022-10-07T19:14:13.119Z,19
2022-10-07T19:19:25.273Z,19
2022-10-07T19:24:37.422Z,19
2022-10-07T19:29:49.607Z,19
2022-10-07T19:35:01.643Z,19
2022-10-07T19:40:13.913Z,18
2022-10-07T19:45:26.436Z,19
2022-10-07T19:50:38.639Z,19
2022-10-07T19:55:50.817Z,19
2022-10-07T20:01:03.377Z,18
2022-10-07T20:06:15.829Z,18
2022-10-07T20:11:28.038Z,18
2022-10-07T20:16:40.631Z,18
2022-10-07T20:21:52.897Z,18
2022-10-07T20:27:05.027Z,18
2022-10-07T20:32:17.672Z,18
2022-10-07T20:37:29.815Z,17
2022-10-07T20:42:47.983Z,17
2022-10-07T20:48:05.667Z,17
2022-10-07T20:53:17.597Z,17
2022-10-07T20:58:29.658Z,17
2022-10-07T21:03:41.816Z,17
2022-10-07T21:08:53.947Z,17
2022-10-07T21:14:06.046Z,17
2022-10-07T21:19:18.122Z,17
2022-10-07T21:24:30.317Z,17
2022-10-07T21:29:49.038Z,16
2022-10-07T21:35:00.581Z,16
2022-10-07T21:40:15.367Z,16
2022-10-07T21:45:26.827Z,16
2022-10-07T21:50:39.261Z,16
2022-10-07T21:55:51.377Z,16
2022-10-07T22:01:03.639Z,16
2022-10-07T22:06:15.952Z,16
2022-10-07T22:11:28.028Z,16
2022-10-07T22:16:40.026Z,16
2022-10-07T22:21:52.199Z,16
2022-10-07T22:27:04.296Z,16
2022-10-07T22:32:16.500Z,16
2022-10-07T22:37:28.599Z,16
2022-10-07T22:42:40.848Z,16
2022-10-07T22:47:52.755Z,16
2022-10-07T22:53:04.930Z,15
2022-10-07T22:58:16.845Z,15
2022-10-07T23:03:29.453Z,15
2022-10-07T23:08:41.289Z,15
2022-10-07T23:13:53.375Z,15
2022-10-07T23:19:05.345Z,15
2022-10-07T23:24:17.429Z,15
2022-10-07T23:29:29.467Z,15
2022-10-07T23:34:41.676Z,15
2022-10-07T23:39:53.981Z,15
2022-10-07T23:45:05.997Z,15
2022-10-07T23:50:18.052Z,15
2022-10-07T23:55:30.366Z,15
